Time;durP1;ratioP1;P1;durP2;ratioP2;P2;SDS_P1;SDS_P2;PMS_P1;PMS_P2;Temp;Humidity;BMP_temperature;BMP_pressure;BME280_temperature;BME280_humidity;BME280_pressure;Samples;Min_cycle;Max_cycle;Signal;HPM_P1;HPM_P2
2023/04/22 00:00:21;;;;;;;14.60;13.02;;;;;;;6.96;100.00;100728.94;5050651;28;20143;-85
2023/04/22 00:02:49;;;;;;;12.38;11.27;;;;;;;6.94;100.00;100734.25;5050033;28;20120;-85
2023/04/22 00:05:18;;;;;;;13.63;12.38;;;;;;;6.88;100.00;100730.25;5050699;28;20025;-85
2023/04/22 00:07:43;;;;;;;14.50;12.15;;;;;;;6.83;100.00;100724.44;5049917;28;20036;-84
2023/04/22 00:10:21;;;;;;;12.68;11.57;;;;;;;6.79;100.00;100732.53;5049916;28;20393;-85
2023/04/22 00:12:46;;;;;;;14.73;13.23;;;;;;;6.75;100.00;100724.03;5049996;28;20477;-85
2023/04/22 00:15:16;;;;;;;13.90;12.70;;;;;;;6.76;100.00;100733.56;5048726;28;20025;-85
2023/04/22 00:17:42;;;;;;;14.93;13.55;;;;;;;6.65;100.00;100720.31;5030743;28;20044;-84
2023/04/22 00:20:10;;;;;;;16.48;14.82;;;;;;;6.63;100.00;100722.19;5041354;28;20029;-84
2023/04/22 00:22:38;;;;;;;20.33;18.10;;;;;;;6.57;100.00;100723.38;5048829;28;20032;-85
2023/04/22 00:25:27;;;;;;;20.27;18.27;;;;;;;6.58;100.00;100725.06;5049899;28;20571;-85
2023/04/22 00:27:59;;;;;;;21.67;19.67;;;;;;;6.60;100.00;100730.19;5041763;28;20102;-85
2023/04/22 00:30:25;;;;;;;;;;;;;;;6.70;100.00;100728.72;5029649;28;20119;-85
2023/04/22 00:32:53;;;;;;;24.60;22.33;;;;;;;6.65;100.00;100724.69;5030211;28;19973;-85
2023/04/22 00:35:18;;;;;;;27.15;23.77;;;;;;;6.63;100.00;100727.41;5033842;28;20051;-85
2023/04/22 00:37:43;;;;;;;24.73;22.52;;;;;;;6.67;100.00;100718.44;5048712;28;20394;-85
2023/04/22 00:40:15;;;;;;;24.70;22.40;;;;;;;6.67;100.00;100722.84;5049524;28;20492;-84
2023/04/22 00:42:42;;;;;;;25.17;22.80;;;;;;;6.64;100.00;100723.84;5049293;28;20032;-84
2023/04/22 00:45:16;;;;;;;24.27;21.98;;;;;;;6.68;100.00;100724.50;5049278;28;20071;-84
2023/04/22 00:47:50;;;;;;;25.20;22.88;;;;;;;6.69;100.00;100726.19;5050046;28;20045;-84
2023/04/22 00:50:18;;;;;;;25.65;23.25;;;;;;;6.71;100.00;100717.31;5049095;28;20032;-84
2023/04/22 00:52:52;;;;;;;25.58;23.17;;;;;;;6.65;100.00;100722.91;5044902;28;20128;-84
2023/04/22 00:55:18;;;;;;;26.38;23.88;;;;;;;6.65;100.00;100728.16;5049983;28;20025;-84
2023/04/22 00:57:53;;;;;;;25.60;23.27;;;;;;;6.69;100.00;100736.66;5037804;28;20048;-84
2023/04/22 01:00:31;;;;;;;26.25;23.65;;;;;;;6.74;100.00;100731.97;5029798;28;20021;-84
2023/04/22 01:03:08;;;;;;;25.88;23.42;;;;;;;6.73;100.00;100725.91;5050500;28;20034;-84
2023/04/22 01:05:40;;;;;;;26.67;24.00;;;;;;;6.73;100.00;100730.31;5051069;28;20092;-85
2023/04/22 01:08:08;;;;;;;27.13;24.57;;;;;;;6.72;100.00;100726.84;5051767;28;20035;-84
2023/04/22 01:10:38;;;;;;;27.25;24.67;;;;;;;6.75;100.00;100734.50;5043527;28;20029;-84
2023/04/22 01:13:09;;;;;;;27.45;24.95;;;;;;;6.74;100.00;100727.59;5049340;28;20055;-84
2023/04/22 01:15:37;;;;;;;28.30;25.50;;;;;;;6.76;100.00;100725.72;5046428;28;20030;-83
2023/04/22 01:18:06;;;;;;;28.05;25.52;;;;;;;6.78;100.00;100721.25;5049801;28;20031;-84
2023/04/22 01:20:37;;;;;;;27.90;25.30;;;;;;;6.81;100.00;100718.47;5049826;28;20111;-84
2023/04/22 01:23:19;;;;;;;27.02;24.52;;;;;;;6.79;100.00;100715.09;5049865;28;20405;-83
2023/04/22 01:25:46;;;;;;;27.77;25.20;;;;;;;6.84;100.00;100715.69;5047576;28;20025;-84
2023/04/22 01:28:25;;;;;;;26.50;24.10;;;;;;;6.80;100.00;100718.53;5045088;28;20032;-84
2023/04/22 01:31:11;;;;;;;25.98;23.48;;;;;;;6.88;100.00;100717.16;5049406;28;20044;-84
2023/04/22 01:33:53;;;;;;;25.95;23.55;;;;;;;6.87;100.00;100710.25;5048113;28;20056;-84
2023/04/22 01:36:21;;;;;;;25.90;23.43;;;;;;;6.87;100.00;100705.03;5048245;28;20402;-84
2023/04/22 01:38:46;;;;;;;25.42;23.02;;;;;;;6.91;100.00;100716.97;5047121;28;20052;-84
2023/04/22 01:41:13;;;;;;;25.50;22.92;;;;;;;6.93;100.00;100708.19;5044081;28;20381;-84
2023/04/22 01:43:44;;;;;;;23.95;21.75;;;;;;;6.89;100.00;100716.22;5036132;28;20504;-84
2023/04/22 01:46:21;;;;;;;23.90;21.70;;;;;;;6.94;100.00;100715.09;5046723;28;20016;-84
2023/04/22 01:48:50;;;;;;;22.45;20.40;;;;;;;6.91;100.00;100711.75;5064293;28;20025;-84
2023/04/22 01:51:27;;;;;;;22.58;20.58;;;;;;;6.93;100.00;100711.66;5064069;28;20484;-84
2023/04/22 01:53:53;;;;;;;23.05;21.02;;;;;;;6.93;100.00;100708.19;5064760;28;20594;-83
2023/04/22 01:56:24;;;;;;;22.70;20.70;;;;;;;6.93;100.00;100713.44;5046971;28;20024;-83
2023/04/22 01:58:50;;;;;;;22.73;20.57;;;;;;;6.88;100.00;100711.94;5056790;28;20044;-83
2023/04/22 02:01:23;;;;;;;23.05;20.98;;;;;;;6.87;100.00;100712.88;5047039;28;20039;-83
2023/04/22 02:03:51;;;;;;;23.35;21.15;;;;;;;6.84;100.00;100714.84;5047610;28;20029;-83
2023/04/22 02:06:16;;;;;;;23.25;21.08;;;;;;;6.82;100.00;100707.09;5048797;28;20086;-83
2023/04/22 02:08:45;;;;;;;23.05;20.85;;;;;;;6.79;100.00;100707.25;5046951;28;20021;-83
2023/04/22 02:11:16;;;;;;;22.17;20.27;;;;;;;6.82;100.00;100707.09;5048445;28;20074;-83
2023/04/22 02:13:45;;;;;;;21.90;19.80;;;;;;;6.79;100.00;100704.63;5046666;28;20602;-83
2023/04/22 02:16:13;;;;;;;20.15;18.33;;;;;;;6.78;100.00;100709.94;5045345;28;20024;-83
2023/04/22 02:18:51;;;;;;;21.60;19.58;;;;;;;6.74;100.00;100703.22;5047428;28;20070;-83
2023/04/22 02:21:17;;;;;;;21.63;19.63;;;;;;;6.66;100.00;100701.06;5048582;28;20516;-83
2023/04/22 02:23:45;;;;;;;21.98;19.88;;;;;;;6.66;100.00;100701.06;5049806;28;20029;-83
2023/04/22 02:26:11;;;;;;;22.10;20.00;;;;;;;6.65;100.00;100698.56;5048630;28;20027;-83
2023/04/22 02:28:36;;;;;;;22.42;20.33;;;;;;;6.64;100.00;100702.09;5049689;28;20033;-83
2023/04/22 02:31:08;;;;;;;21.33;19.35;;;;;;;6.67;100.00;100694.06;5043877;28;20039;-83
2023/04/22 02:33:39;;;;;;;22.55;20.50;;;;;;;6.62;100.00;100691.75;5048845;28;20032;-83
2023/04/22 02:36:10;;;;;;;22.33;20.10;;;;;;;6.61;100.00;100695.28;5045924;28;20060;-83
2023/04/22 02:38:39;;;;;;;22.17;20.08;;;;;;;6.60;100.00;100689.22;5028707;28;20107;-83
2023/04/22 02:41:12;;;;;;;22.20;20.02;;;;;;;6.63;100.00;100685.56;5032128;28;20022;-83
2023/04/22 02:43:37;;;;;;;23.40;21.20;;;;;;;6.58;100.00;100679.78;5066555;28;20079;-84
2023/04/22 02:46:02;;;;;;;22.00;19.95;;;;;;;6.56;100.00;100684.28;5050956;28;20024;-84
2023/04/22 02:48:31;;;;;;;21.67;19.67;;;;;;;6.57;100.00;100678.09;5049986;28;20111;-84
2023/04/22 02:50:56;;;;;;;22.15;20.15;;;;;;;6.58;100.00;100685.00;5043210;28;20037;-83
2023/04/22 02:53:24;;;;;;;23.83;21.63;;;;;;;6.57;100.00;100675.50;5066729;28;20035;-84
2023/04/22 02:56:00;;;;;;;22.48;20.48;;;;;;;6.64;100.00;100675.97;5052851;28;20033;-84
2023/04/22 02:58:32;;;;;;;22.77;20.67;;;;;;;6.59;100.00;100674.47;5050975;28;20040;-85
2023/04/22 03:01:00;;;;;;;23.40;21.20;;;;;;;6.59;100.00;100678.84;5066391;28;20482;-85
2023/04/22 03:03:26;;;;;;;24.10;21.90;;;;;;;6.61;100.00;100677.00;5049711;28;20049;-85
2023/04/22 03:06:14;;;;;;;22.83;20.73;;;;;;;6.57;100.00;100683.34;5051292;28;20040;-84
2023/04/22 03:08:42;;;;;;;24.00;21.80;;;;;;;6.57;100.00;100681.56;5049702;28;20033;-84
2023/04/22 03:11:12;;;;;;;23.77;21.48;;;;;;;6.57;100.00;100675.50;5050582;28;20056;-84
2023/04/22 03:14:01;;;;;;;22.40;20.40;;;;;;;6.63;100.00;100666.44;5051222;28;20039;-85
2023/04/22 03:16:38;;;;;;;23.67;21.40;;;;;;;6.61;100.00;100666.53;5052235;28;20033;-85
2023/04/22 03:19:03;;;;;;;25.35;22.20;;;;;;;6.56;100.00;100664.19;5043461;28;20504;-84
2023/04/22 03:21:35;;;;;;;24.13;21.98;;;;;;;6.60;100.00;100664.84;5050225;28;20021;-85
2023/04/22 03:24:00;;;;;;;22.77;20.77;;;;;;;6.57;100.00;100659.81;5064704;28;20104;-85
2023/04/22 03:26:29;;;;;;;22.83;20.73;;;;;;;6.56;100.00;100655.50;5051600;28;20287;-85
2023/04/22 03:28:58;;;;;;;22.52;20.52;;;;;;;6.55;100.00;100654.69;5046741;28;20030;-83
2023/04/22 03:31:23;;;;;;;23.02;20.95;;;;;;;6.56;100.00;100652.91;5052094;28;20447;-83
2023/04/22 03:33:54;;;;;;;22.98;20.90;;;;;;;6.55;100.00;100651.22;5050471;28;20033;-83
2023/04/22 03:36:23;;;;;;;23.80;21.50;;;;;;;6.54;100.00;100654.78;5051306;28;20028;-84
2023/04/22 03:38:54;;;;;;;23.95;21.75;;;;;;;6.51;100.00;100644.50;5048611;28;20508;-83
2023/04/22 03:41:20;;;;;;;23.15;21.13;;;;;;;6.48;100.00;100640.31;5051245;28;20048;-83
2023/04/22 03:43:54;;;;;;;24.48;22.27;;;;;;;6.49;100.00;100641.16;5051628;28;20117;-83
2023/04/22 03:46:22;;;;;;;24.50;22.40;;;;;;;6.48;100.00;100639.47;5052095;28;20052;-85
2023/04/22 03:48:50;;;;;;;24.25;22.15;;;;;;;6.45;100.00;100635.25;5045920;28;20037;-82
2023/04/22 03:51:24;;;;;;;24.55;22.35;;;;;;;6.50;100.00;100627.13;5049864;28;20098;-83
2023/04/22 03:53:52;;;;;;;24.67;22.42;;;;;;;6.48;100.00;100629.00;5049373;28;20045;-84
2023/04/22 03:56:18;;;;;;;23.88;21.67;;;;;;;6.48;100.00;100624.63;5046769;28;20481;-84
2023/04/22 03:58:43;;;;;;;23.77;21.63;;;;;;;6.47;100.00;100627.34;5050826;28;20103;-83
2023/04/22 04:01:11;;;;;;;23.48;21.27;;;;;;;6.46;100.00;100625.66;5049180;28;20017;-84
2023/04/22 04:03:40;;;;;;;23.58;21.48;;;;;;;6.40;100.00;100626.00;5048276;28;20037;-84
2023/04/22 04:06:06;;;;;;;23.67;21.50;;;;;;;6.40;100.00;100621.59;5044082;28;20124;-84
2023/04/22 04:08:32;;;;;;;26.42;23.67;;;;;;;6.37;100.00;100613.13;5045269;28;20154;-84
2023/04/22 04:10:57;;;;;;;25.27;22.77;;;;;;;6.42;100.00;100616.31;5050969;28;20037;-84
2023/04/22 04:13:23;;;;;;;25.63;23.30;;;;;;;6.39;100.00;100606.03;5045163;28;20017;-84
2023/04/22 04:15:51;;;;;;;25.98;23.48;;;;;;;6.41;100.00;100623.31;5046412;28;20025;-84
2023/04/22 04:18:20;;;;;;;25.30;22.80;;;;;;;6.35;100.00;100618.44;5030122;28;20371;-84
2023/04/22 04:20:48;;;;;;;25.98;23.63;;;;;;;6.36;100.00;100624.50;5045003;28;20029;-84
2023/04/22 04:23:20;;;;;;;25.65;23.25;;;;;;;6.42;100.00;100619.78;5048135;28;20060;-83
2023/04/22 04:25:55;;;;;;;24.67;22.38;;;;;;;6.40;100.00;100612.94;5050461;28;20389;-84
2023/04/22 04:28:46;;;;;;;24.15;21.88;;;;;;;6.45;100.00;100613.53;5049708;28;20527;-84
2023/04/22 04:31:12;;;;;;;23.55;21.35;;;;;;;6.34;100.00;100613.31;5032822;28;20033;-84
2023/04/22 04:33:37;;;;;;;25.75;23.23;;;;;;;6.28;100.00;100607.50;5031599;28;20068;-84
2023/04/22 04:36:03;;;;;;;26.15;23.77;;;;;;;6.33;100.00;100614.22;5048217;28;20063;-84
2023/04/22 04:38:33;;;;;;;25.40;23.00;;;;;;;6.26;100.00;100606.75;5064552;28;20094;-84
2023/04/22 04:41:10;;;;;;;25.63;23.20;;;;;;;6.29;100.00;100608.34;5051570;28;20028;-84
2023/04/22 04:43:37;;;;;;;26.50;23.80;;;;;;;6.27;100.00;100611.06;5045508;28;20072;-84
2023/04/22 04:46:07;;;;;;;26.42;23.92;;;;;;;6.28;100.00;100612.75;5029056;28;20094;-84
2023/04/22 04:48:35;;;;;;;25.25;22.60;;;;;;;6.31;100.00;100616.09;5045989;28;20087;-84
2023/04/22 04:51:05;;;;;;;26.15;23.38;;;;;;;6.36;100.00;100621.88;5050963;28;20457;-83
2023/04/22 04:53:30;;;;;;;26.30;23.55;;;;;;;6.38;100.00;100617.41;5045344;28;20033;-83
2023/04/22 04:55:55;;;;;;;26.63;23.88;;;;;;;6.41;100.00;100612.03;5066847;28;20397;-84
2023/04/22 04:58:21;;;;;;;26.02;23.63;;;;;;;6.42;100.00;100618.94;5066092;28;20028;-83
2023/04/22 05:00:46;;;;;;;24.88;22.38;;;;;;;6.48;100.00;100629.00;5049112;28;20035;-84
2023/04/22 05:03:14;;;;;;;25.50;22.92;;;;;;;6.52;100.00;100620.03;5047670;28;20029;-84
2023/04/22 05:05:45;;;;;;;27.67;24.83;;;;;;;6.48;100.00;100622.00;5047841;28;20021;-84
2023/04/22 05:08:10;;;;;;;26.73;24.13;;;;;;;6.55;100.00;100619.84;5047696;28;20029;-83
2023/04/22 05:10:35;;;;;;;28.20;25.35;;;;;;;6.58;100.00;100620.50;5049698;28;20039;-83
2023/04/22 05:13:01;;;;;;;28.35;25.65;;;;;;;6.61;100.00;100614.25;5048529;28;20025;-83
2023/04/22 05:15:32;;;;;;;29.85;27.05;;;;;;;6.64;100.00;100603.59;5040740;28;20090;-83
2023/04/22 05:18:09;;;;;;;31.65;27.55;;;;;;;6.68;100.00;100597.25;5044498;28;20091;-83
2023/04/22 05:20:36;;;;;;;31.75;28.65;;;;;;;6.69;100.00;100591.09;5042925;28;20146;-83
2023/04/22 05:23:07;;;;;;;31.38;28.40;;;;;;;6.71;100.00;100604.91;5046405;28;20534;-84
2023/04/22 05:25:32;;;;;;;31.27;28.13;;;;;;;6.79;100.00;100607.88;5035135;28;20029;-83
2023/04/22 05:28:08;;;;;;;31.48;28.38;;;;;;;6.84;100.00;100624.16;5048476;28;20606;-84
2023/04/22 05:30:37;;;;;;;29.80;27.02;;;;;;;6.89;100.00;100618.63;5034999;28;20025;-83
2023/04/22 05:33:07;;;;;;;32.30;29.00;;;;;;;6.90;100.00;100615.06;5043675;28;20029;-84
2023/04/22 05:35:45;;;;;;;30.98;27.88;;;;;;;7.01;100.00;100609.16;5035961;28;20083;-84
2023/04/22 05:38:16;;;;;;;29.80;26.83;;;;;;;7.08;100.00;100603.44;5044952;28;20049;-84
2023/04/22 05:40:44;;;;;;;29.23;26.42;;;;;;;7.12;100.00;100598.84;5046172;28;20028;-84
2023/04/22 05:43:12;;;;;;;30.10;27.02;;;;;;;7.17;100.00;100596.78;5032377;28;20036;-84
2023/04/22 05:45:37;;;;;;;28.38;25.50;;;;;;;7.23;100.00;100596.41;5041689;28;20385;-84
2023/04/22 05:48:08;;;;;;;28.77;25.98;;;;;;;7.32;100.00;100600.22;5039277;28;20033;-84
2023/04/22 05:50:34;;;;;;;28.10;25.15;;;;;;;7.34;100.00;100614.03;5045139;28;20107;-84
2023/04/22 05:53:02;;;;;;;25.27;22.98;;;;;;;7.33;100.00;100600.13;5045232;28;20108;-84
2023/04/22 05:55:28;;;;;;;27.60;24.92;;;;;;;7.41;100.00;100600.44;5034077;28;20013;-84
2023/04/22 05:57:53;;;;;;;27.65;24.90;;;;;;;7.48;100.00;100606.97;5040374;28;20112;-84
2023/04/22 06:00:45;;;;;;;28.08;25.30;;;;;;;7.47;100.00;100602.66;5040958;28;20033;-84
2023/04/22 06:03:16;;;;;;;28.45;25.75;;;;;;;7.66;100.00;100598.88;5028141;28;20032;-84
2023/04/22 06:05:55;;;;;;;30.95;27.95;;;;;;;7.83;100.00;100590.72;5037171;28;20088;-84
2023/04/22 06:11:15;;;;;;;27.55;24.95;;;;;;;7.96;100.00;100598.59;5008943;28;20029;-83
2023/04/22 06:13:40;;;;;;;29.67;26.92;;;;;;;8.10;100.00;100598.53;5040398;28;20470;-84
2023/04/22 06:16:06;;;;;;;30.02;27.42;;;;;;;8.22;100.00;100596.84;5034061;28;20036;-81
2023/04/22 06:18:42;;;;;;;30.50;27.65;;;;;;;8.23;100.00;100594.13;5042921;28;20512;-85
2023/04/22 06:21:11;;;;;;;30.67;27.95;;;;;;;8.40;100.00;100595.59;5031739;28;20033;-85
2023/04/22 06:23:39;;;;;;;30.52;27.83;;;;;;;8.52;100.00;100589.53;5040711;28;20030;-82
2023/04/22 06:26:13;;;;;;;31.15;28.33;;;;;;;8.67;100.00;100596.31;5042786;28;20052;-83
2023/04/22 06:28:44;;;;;;;31.85;28.95;;;;;;;8.84;100.00;100589.06;5048621;28;20104;-83
2023/04/22 06:31:18;;;;;;;29.13;26.55;;;;;;;9.05;100.00;100587.53;5046835;28;20025;-83
2023/04/22 06:33:50;;;;;;;28.20;25.70;;;;;;;9.28;100.00;100586.72;5048013;28;20075;-83
2023/04/22 06:36:19;;;;;;;26.17;23.77;;;;;;;9.47;100.00;100588.81;5048746;28;20053;-82
2023/04/22 06:38:47;;;;;;;24.75;22.60;;;;;;;9.68;100.00;100587.25;5048082;28;20044;-82
2023/04/22 06:41:12;;;;;;;23.63;21.20;;;;;;;9.82;100.00;100580.13;5042448;28;20025;-82
2023/04/22 06:43:38;;;;;;;21.88;19.88;;;;;;;10.03;100.00;100574.09;5048009;28;20100;-84
2023/04/22 06:46:15;;;;;;;20.60;18.58;;;;;;;10.19;100.00;100578.16;5044513;28;20028;-82
2023/04/22 06:48:47;;;;;;;19.90;18.13;;;;;;;10.20;100.00;100566.69;5049574;28;20390;-82
2023/04/22 06:51:12;;;;;;;19.70;17.92;;;;;;;10.24;100.00;100562.91;5040050;28;20084;-82
2023/04/22 06:53:40;;;;;;;19.67;17.88;;;;;;;10.27;100.00;100573.19;5029764;28;20110;-83
2023/04/22 06:56:21;;;;;;;19.05;17.15;;;;;;;10.44;100.00;100579.78;5038881;28;20025;-84
2023/04/22 06:58:52;;;;;;;19.17;17.38;;;;;;;10.67;100.00;100571.75;5037915;28;20035;-82
2023/04/22 07:01:18;;;;;;;17.98;16.27;;;;;;;10.74;100.00;100573.91;5037649;28;20435;-82
2023/04/22 07:03:43;;;;;;;19.70;16.05;;;;;;;11.05;100.00;100575.78;5049648;28;20025;-81
2023/04/22 07:06:15;;;;;;;16.67;15.07;;;;;;;11.33;100.00;100568.28;5048402;28;20021;-82
2023/04/22 07:08:51;;;;;;;16.60;14.98;;;;;;;11.51;100.00;100574.66;5035586;28;20022;-81
2023/04/22 07:11:17;;;;;;;15.82;14.32;;;;;;;11.80;100.00;100567.03;5026493;28;20033;-82
2023/04/22 07:13:48;;;;;;;17.50;13.60;;;;;;;11.84;100.00;100564.00;5043896;28;20040;-82
2023/04/22 07:16:13;;;;;;;14.38;12.82;;;;;;;11.80;100.00;100559.94;5043746;28;20037;-82
2023/04/22 07:18:42;;;;;;;14.50;12.93;;;;;;;11.77;100.00;100562.81;5047682;28;20032;-82
2023/04/22 07:21:07;;;;;;;14.13;12.82;;;;;;;11.75;100.00;100559.47;5062414;28;20041;-82
2023/04/22 07:23:36;;;;;;;14.35;12.95;;;;;;;11.77;100.00;100565.44;5048828;28;20477;-82
2023/04/22 07:26:04;;;;;;;14.15;12.65;;;;;;;11.90;100.00;100571.38;5045085;28;20036;-82
2023/04/22 07:28:35;;;;;;;14.27;12.77;;;;;;;12.09;100.00;100567.22;5048753;28;20442;-82
2023/04/22 07:31:04;;;;;;;12.82;11.60;;;;;;;12.14;100.00;100572.94;5050564;28;20494;-82
2023/04/22 07:33:29;;;;;;;13.93;12.63;;;;;;;12.19;100.00;100568.09;5050941;28;20020;-82
2023/04/22 07:35:55;;;;;;;13.80;12.40;;;;;;;12.39;100.00;100563.75;5051933;28;20477;-82
2023/04/22 07:38:26;;;;;;;14.27;12.88;;;;;;;12.74;100.00;100563.34;5051563;28;20053;-81
2023/04/22 07:40:58;;;;;;;13.57;12.18;;;;;;;13.00;100.00;100569.81;5051720;28;20056;-82
2023/04/22 07:43:24;;;;;;;12.63;11.43;;;;;;;13.11;98.62;100567.03;5048614;28;20025;-82
2023/04/22 07:45:52;;;;;;;13.82;11.38;;;;;;;13.25;98.45;100575.59;5051208;28;20040;-82
2023/04/22 07:48:20;;;;;;;12.90;11.55;;;;;;;13.18;98.77;100578.75;5051224;28;20029;-83
2023/04/22 07:50:55;;;;;;;13.13;11.80;;;;;;;13.21;99.49;100561.81;5051309;28;20086;-82
2023/04/22 07:53:20;;;;;;;12.23;11.00;;;;;;;13.30;96.97;100550.44;5051907;28;20536;-83
2023/04/22 07:55:49;;;;;;;12.35;11.15;;;;;;;13.57;97.84;100547.06;5051895;28;20132;-82
2023/04/22 07:58:20;;;;;;;11.85;10.50;;;;;;;13.75;96.74;100548.03;5050151;28;20053;-84
2023/04/22 08:00:46;;;;;;;12.65;9.80;;;;;;;13.74;95.69;100548.19;5048733;28;20020;-84
2023/04/22 08:03:14;;;;;;;11.23;10.05;;;;;;;13.72;94.78;100540.41;5050781;28;20085;-85
2023/04/22 08:05:46;;;;;;;10.77;9.68;;;;;;;13.75;94.90;100529.53;5050120;28;20021;-84
2023/04/22 08:08:14;;;;;;;11.07;9.90;;;;;;;13.82;92.28;100528.97;5051668;28;20431;-84
2023/04/22 08:11:05;;;;;;;10.88;9.38;;;;;;;14.02;92.11;100525.31;5050295;28;20025;-84
2023/04/22 08:13:31;;;;;;;10.93;9.68;;;;;;;14.23;93.59;100528.56;5049366;28;20059;-84
2023/04/22 08:16:06;;;;;;;9.50;8.60;;;;;;;14.26;89.33;100523.00;5044571;28;20029;-84
2023/04/22 08:18:35;;;;;;;9.75;8.75;;;;;;;14.29;89.52;100527.16;5047178;28;20136;-84
2023/04/22 08:21:03;;;;;;;9.18;8.07;;;;;;;14.25;86.53;100526.63;5050342;28;20501;-83
2023/04/22 08:23:32;;;;;;;9.43;8.57;;;;;;;14.31;88.02;100509.31;5051296;28;20362;-83
2023/04/22 08:26:03;;;;;;;9.73;8.77;;;;;;;14.33;88.33;100516.13;5050344;28;20017;-83
2023/04/22 08:28:36;;;;;;;10.38;8.95;;;;;;;14.46;88.81;100517.66;5051559;28;20090;-84
2023/04/22 08:31:05;;;;;;;9.65;8.75;;;;;;;14.55;88.46;100522.06;5050195;28;20104;-83
2023/04/22 08:33:30;;;;;;;11.57;8.13;;;;;;;14.56;86.99;100518.44;5049522;28;20035;-83
2023/04/22 08:36:11;;;;;;;8.88;8.07;;;;;;;14.63;86.68;100519.50;5036788;28;20033;-83
2023/04/22 08:38:37;;;;;;;8.65;7.72;;;;;;;14.90;85.98;100497.47;5028920;28;20141;-83
2023/04/22 08:41:06;;;;;;;10.40;8.32;;;;;;;15.23;84.17;100493.34;5029796;28;20541;-83
2023/04/22 08:43:34;;;;;;;9.60;8.18;;;;;;;15.61;80.51;100484.22;4988875;28;20038;-83
2023/04/22 08:46:03;;;;;;;7.82;7.03;;;;;;;15.88;78.90;100480.56;4988433;28;20038;-83
2023/04/22 08:48:37;;;;;;;7.75;6.97;;;;;;;15.90;76.49;100476.78;4989541;28;20775;-83
2023/04/22 08:51:10;;;;;;;7.78;7.07;;;;;;;16.23;76.87;100475.13;4992738;28;20096;-83
2023/04/22 08:53:36;;;;;;;7.68;6.95;;;;;;;16.50;76.38;100471.44;5008916;28;20037;-83
2023/04/22 08:56:11;;;;;;;8.30;7.00;;;;;;;16.72;74.39;100480.66;4991869;28;20558;-83
2023/04/22 08:58:40;;;;;;;8.60;6.65;;;;;;;16.85;73.84;100470.41;4991642;28;20511;-83
2023/04/22 09:01:09;;;;;;;6.75;6.15;;;;;;;16.73;70.14;100471.69;5008149;28;20113;-82
2023/04/22 09:03:41;;;;;;;7.07;6.38;;;;;;;16.52;73.52;100472.09;4992823;28;20471;-83
2023/04/22 09:06:06;;;;;;;6.60;6.00;;;;;;;16.55;72.74;100463.81;5007488;28;20022;-83
2023/04/22 09:08:35;;;;;;;10.50;6.28;;;;;;;16.66;72.30;100469.84;5007605;28;20045;-83
2023/04/22 09:11:03;;;;;;;7.93;6.63;;;;;;;16.85;72.97;100470.41;5009085;28;20459;-83
2023/04/22 09:13:37;;;;;;;6.53;5.80;;;;;;;17.00;72.51;100473.25;5009786;28;20026;-83
2023/04/22 09:16:06;;;;;;;6.65;6.03;;;;;;;17.26;70.47;100467.78;5030657;28;20434;-83
2023/04/22 09:18:47;;;;;;;7.13;6.40;;;;;;;17.47;71.88;100469.94;5031296;28;20120;-83
2023/04/22 09:21:27;;;;;;;6.80;6.10;;;;;;;17.61;69.66;100465.75;5029937;28;20080;-83
2023/04/22 09:23:56;;;;;;;7.78;6.88;;;;;;;17.58;70.05;100460.78;5029704;28;20433;-83
2023/04/22 09:26:25;;;;;;;6.85;6.22;;;;;;;17.74;69.35;100456.31;5038952;28;20041;-83
2023/04/22 09:29:00;;;;;;;6.47;5.88;;;;;;;18.07;69.63;100453.56;5031168;28;20029;-83
2023/04/22 09:31:31;;;;;;;8.02;6.70;;;;;;;18.34;67.45;100457.59;5029436;28;20022;-81
2023/04/22 09:34:00;;;;;;;7.78;6.55;;;;;;;18.51;66.87;100451.22;5029790;28;20133;-81
2023/04/22 09:36:28;;;;;;;6.40;5.80;;;;;;;18.54;66.12;100458.84;5029766;28;20025;-81
2023/04/22 09:39:02;;;;;;;6.93;6.10;;;;;;;18.74;65.50;100448.59;5030113;28;20056;-82
2023/04/22 09:41:34;;;;;;;7.70;6.35;;;;;;;19.17;65.30;100455.13;5036325;28;20036;-82
2023/04/22 09:44:02;;;;;;;10.52;5.68;;;;;;;19.27;63.52;100452.25;5049636;28;20049;-81
2023/04/22 09:46:34;;;;;;;9.68;5.95;;;;;;;19.46;64.37;100458.91;5064010;28;20448;-82
2023/04/22 09:49:10;;;;;;;6.88;6.10;;;;;;;19.52;63.40;100467.00;5048028;28;20098;-82
2023/04/22 09:51:42;;;;;;;7.20;5.85;;;;;;;19.58;62.82;100458.31;5049762;28;20440;-81
2023/04/22 09:54:11;;;;;;;6.88;6.18;;;;;;;19.55;61.39;100465.84;5048494;28;20029;-81
2023/04/22 09:56:47;;;;;;;7.50;6.20;;;;;;;19.97;61.49;100463.41;5049909;28;20017;-82
2023/04/22 09:59:22;;;;;;;6.35;5.70;;;;;;;20.69;59.38;100460.06;5041605;28;20041;-81
2023/04/22 10:02:05;;;;;;;6.43;5.47;;;;;;;21.77;57.86;100448.31;5029178;28;20030;-82
2023/04/22 10:04:36;;;;;;;;;;;;;;;22.17;62.79;100446.72;5028330;28;20037;-81
2023/04/22 10:07:05;;;;;;;6.22;5.50;;;;;;;21.96;56.00;100444.06;5031828;28;19917;-81
2023/04/22 10:09:34;;;;;;;7.00;6.07;;;;;;;23.07;52.59;100438.34;5063511;28;20039;-81
2023/04/22 10:12:09;;;;;;;6.70;5.60;;;;;;;23.65;52.93;100452.03;5049954;28;20024;-81
2023/04/22 10:14:37;;;;;;;7.05;5.78;;;;;;;23.90;49.48;100451.34;5050280;28;20025;-80
2023/04/22 10:17:05;;;;;;;6.40;5.60;;;;;;;23.50;49.02;100453.22;5044174;28;20112;-81
2023/04/22 10:19:32;;;;;;;7.47;5.55;;;;;;;23.41;49.87;100455.31;5048805;28;20044;-81
2023/04/22 10:22:02;;;;;;;7.93;5.63;;;;;;;24.23;47.80;100449.41;5027432;28;20073;-80
2023/04/22 10:24:33;;;;;;;6.55;5.85;;;;;;;23.66;47.45;100444.78;5027309;28;20122;-81
2023/04/22 10:27:12;;;;;;;6.38;5.78;;;;;;;22.75;51.24;100444.44;5027627;28;20061;-81
2023/04/22 10:29:41;;;;;;;5.90;5.30;;;;;;;22.22;51.91;100446.94;5010312;28;20359;-80
2023/04/22 10:32:39;;;;;;;6.30;5.07;;;;;;;21.90;53.52;100451.88;5008350;28;20034;-80
2023/04/22 10:35:19;;;;;;;6.70;4.25;;;;;;;21.31;52.94;100439.94;5007500;28;20494;-80
2023/04/22 10:37:45;;;;;;;4.38;3.90;;;;;;;20.85;53.62;100434.94;5009972;28;20077;-81
2023/04/22 10:40:17;;;;;;;6.35;4.25;;;;;;;20.39;55.78;100424.50;5026792;28;20119;-81
2023/04/22 10:42:54;;;;;;;6.00;3.80;;;;;;;20.06;56.54;100433.97;5011213;28;20036;-81
2023/04/22 10:45:31;;;;;;;5.43;3.90;;;;;;;19.68;57.57;100442.06;5009296;28;20039;-80
2023/04/22 10:48:07;;;;;;;5.00;4.03;;;;;;;19.42;59.74;100445.94;5027648;28;20164;-80
2023/04/22 10:50:43;;;;;;;6.03;4.28;;;;;;;18.87;60.31;100448.03;5020514;28;20034;-83
2023/04/22 10:53:41;;;;;;;6.88;4.28;;;;;;;18.70;61.87;100460.63;5026247;28;20038;-80
2023/04/22 10:56:16;;;;;;;5.13;4.40;;;;;;;18.16;62.69;100464.00;4994280;28;20033;-81
2023/04/22 10:58:45;;;;;;;7.53;4.45;;;;;;;17.80;63.90;100468.94;5013024;28;20029;-81
2023/04/22 11:01:16;;;;;;;5.53;4.03;;;;;;;17.46;65.38;100468.28;5045888;28;20041;-81
2023/04/22 11:03:44;;;;;;;6.32;4.28;;;;;;;17.33;66.47;100466.13;5047263;28;20033;-81
2023/04/22 11:06:21;;;;;;;5.20;4.70;;;;;;;17.05;70.41;100470.09;5047507;28;20631;-81
2023/04/22 11:09:12;;;;;;;7.68;5.20;;;;;;;16.87;73.97;100479.03;5050375;28;20028;-83
2023/04/22 11:11:37;;;;;;;9.35;5.40;;;;;;;16.58;76.89;100481.25;5049649;28;20045;-84
2023/04/22 11:14:03;;;;;;;6.07;5.47;;;;;;;16.36;79.33;100473.84;5049735;28;20068;-84
2023/04/22 11:16:56;;;;;;;8.38;6.30;;;;;;;16.27;80.74;100476.47;5038985;28;20029;-84
2023/04/22 11:19:30;;;;;;;;;;;;;;;16.38;77.37;100467.38;5012730;28;20470;-83
2023/04/22 11:22:14;;;;;;;8.85;6.28;;;;;;;16.14;80.95;100468.13;5030328;28;19913;-83
2023/04/22 11:24:58;;;;;;;7.25;6.32;;;;;;;16.01;83.56;100465.09;5048790;28;20037;-83
2023/04/22 11:27:27;;;;;;;7.63;6.78;;;;;;;15.80;86.70;100456.66;5050717;28;20397;-84
2023/04/22 11:30:31;;;;;;;7.35;6.50;;;;;;;15.91;85.28;100474.97;5065426;28;20178;-84
2023/04/22 11:33:02;;;;;;;10.10;6.78;;;;;;;15.71;86.95;100471.69;5033830;28;20073;-84